Time;durP1;ratioP1;P1;durP2;ratioP2;P2;SDS_P1;SDS_P2;PMS_P1;PMS_P2;Temp;Humidity;BMP_temperature;BMP_pressure;BME280_temperature;BME280_humidity;BME280_pressure;Samples;Min_cycle;Max_cycle;Signal;HPM_P1;HPM_P2
2023/06/17 00:01:49;;;;;;;;;19.50;18.50;;;;;15.08;100.00;99136.84;6286044;20;2846129;-59
2023/06/17 00:04:17;;;;;;;;;19.00;19.00;;;;;14.71;100.00;99137.38;6286764;20;2835710;-60
2023/06/17 00:06:45;;;;;;;;;21.50;20.00;;;;;14.82;100.00;99131.03;6284247;20;2836799;-60
2023/06/17 00:09:14;;;;;;;;;21.00;19.50;;;;;14.63;100.00;99129.09;6283004;20;2840000;-60
2023/06/17 00:11:42;;;;;;;;;18.50;18.50;;;;;14.73;100.00;99120.19;6287338;20;2500784;-60
2023/06/17 00:14:11;;;;;;;;;20.33;16.67;;;;;14.75;100.00;99116.38;6312524;20;3564835;-60
2023/06/17 00:16:43;;;;;;;;;24.50;20.50;;;;;14.71;100.00;99110.34;6315020;20;2836740;-60
2023/06/17 00:19:20;;;;;;;;;18.50;17.00;;;;;14.65;100.00;99113.59;6284804;20;2828418;-59
2023/06/17 00:21:49;;;;;;;;;17.50;15.50;;;;;14.47;100.00;99115.19;6281220;20;2496111;-58
2023/06/17 00:24:18;;;;;;;;;22.00;18.00;;;;;14.33;100.00;99111.00;6284167;20;2829411;-59
2023/06/17 00:26:49;;;;;;;;;23.67;19.67;;;;;14.14;100.00;99110.84;6286532;20;3586054;-60
2023/06/17 00:29:17;;;;;;;;;26.00;24.00;;;;;14.33;100.00;99108.28;6282126;20;2838820;-60
2023/06/17 00:31:45;;;;;;;;;26.00;24.00;;;;;14.10;100.00;99104.84;6283440;20;2838881;-60
2023/06/17 00:34:13;;;;;;;;;22.33;21.67;;;;;14.25;100.00;99106.25;6285723;20;3573279;-60
2023/06/17 00:36:41;;;;;;;;;25.00;21.00;;;;;14.18;100.00;99102.34;6315326;20;2821302;-60
2023/06/17 00:39:10;;;;;;;;;20.00;18.00;;;;;14.33;100.00;99110.13;6285248;20;2831540;-60
2023/06/17 00:41:38;;;;;;;;;21.00;21.00;;;;;14.26;100.00;99104.38;6284563;20;2837803;-60
2023/06/17 00:44:06;;;;;;;;;20.00;17.50;;;;;14.31;100.00;99106.69;6281418;20;2487755;-59
2023/06/17 00:46:37;;;;;;;;;22.50;20.50;;;;;14.31;100.00;99106.69;6283416;20;2840997;-60
2023/06/17 00:49:09;;;;;;;;;22.00;21.00;;;;;14.46;100.00;99103.53;6282387;20;2494058;-60
2023/06/17 00:51:38;;;;;;;;;24.00;20.50;;;;;14.10;100.00;99104.00;6283249;20;2838792;-59
2023/06/17 00:54:10;;;;;;;;;18.00;18.00;;;;;14.05;100.00;99107.09;6282623;20;2834759;-59
2023/06/17 00:56:40;;;;;;;;;20.50;19.50;;;;;13.86;100.00;99102.41;6279846;20;2833636;-59
2023/06/17 00:59:08;;;;;;;;;22.00;18.00;;;;;13.86;100.00;99106.94;6284351;20;2831551;-60
2023/06/17 01:01:36;;;;;;;;;23.50;19.00;;;;;13.75;100.00;99097.91;6281194;20;2846199;-57
2023/06/17 01:04:06;;;;;;;;;25.67;21.00;;;;;13.88;100.00;99105.00;6279428;20;2845112;-60
2023/06/17 01:07:17;;;;;;;;;21.67;19.00;;;;;13.98;100.00;99101.38;6314235;20;3571216;-60
2023/06/17 01:10:06;;;;;;;;;16.33;14.33;;;;;13.97;100.00;99099.63;6314687;20;3540917;-57
2023/06/17 01:12:35;;;;;;;;;21.50;19.00;;;;;13.75;100.00;99094.38;6280887;20;2849271;-58
2023/06/17 01:15:04;;;;;;;;;19.50;17.00;;;;;13.52;100.00;99089.03;6282059;20;2836117;-60
2023/06/17 01:17:34;;;;;;;;;22.50;21.00;;;;;13.51;100.00;99081.94;6281345;20;2846149;-58
2023/06/17 01:20:05;;;;;;;;;19.50;18.00;;;;;13.79;100.00;99091.25;6279868;20;2832529;-60
2023/06/17 01:22:36;;;;;;;;;28.00;20.00;;;;;13.77;100.00;99086.97;6279873;20;2864972;-58
2023/06/17 01:25:06;;;;;;;;;19.50;15.00;;;;;13.76;100.00;99093.38;6312654;20;2818156;-59
2023/06/17 01:27:34;;;;;;;;;18.50;16.50;;;;;13.69;100.00;99093.03;6279022;20;2496172;-57
2023/06/17 01:30:02;;;;;;;;;18.50;16.50;;;;;13.51;100.00;99092.75;6283772;20;2831495;-60
2023/06/17 01:32:31;;;;;;;;;20.00;18.50;;;;;13.20;100.00;99093.53;6283153;20;2837915;-60
2023/06/17 01:35:03;;;;;;;;;26.00;21.50;;;;;13.03;100.00;99084.94;6279559;20;2834650;-59
2023/06/17 01:38:01;;;;;;;;;20.00;19.00;;;;;13.17;100.00;99073.06;6285127;20;2837798;-59
2023/06/17 01:40:32;;;;;;;;;24.33;21.33;;;;;13.23;100.00;99077.09;6282518;20;2840052;-58
2023/06/17 01:43:02;;;;;;;;;20.50;20.00;;;;;13.18;100.00;99080.16;6310749;20;2846140;-59
2023/06/17 01:45:32;;;;;;;;;22.33;20.00;;;;;13.17;100.00;99083.84;6279547;20;2848247;-57
2023/06/17 01:48:01;;;;;;;;;21.00;18.00;;;;;13.11;100.00;99082.53;6307862;20;2829456;-60
2023/06/17 01:50:29;;;;;;;;;22.00;19.00;;;;;13.00;100.00;99073.59;6282983;20;2833651;-60
2023/06/17 01:52:58;;;;;;;;;22.00;17.00;;;;;12.98;100.00;99078.22;6283958;20;2862962;-58
2023/06/17 01:55:26;;;;;;;;;23.00;22.50;;;;;12.90;100.00;99081.53;6280580;20;2832704;-58
2023/06/17 01:57:55;;;;;;;;;25.33;21.67;;;;;13.01;100.00;99078.00;6282732;20;2845175;-58
2023/06/17 02:00:23;;;;;;;;;26.00;23.00;;;;;13.27;100.00;99078.56;6317697;20;3584629;-59
2023/06/17 02:02:51;;;;;;;;;21.00;21.00;;;;;13.33;100.00;99089.72;6279516;20;2846111;-59
2023/06/17 02:05:20;;;;;;;;;23.00;19.00;;;;;13.19;100.00;99092.66;6281161;20;2844063;-58
2023/06/17 02:07:48;;;;;;;;;20.50;20.50;;;;;13.01;100.00;99088.78;6281889;20;2846110;-59
2023/06/17 02:10:17;;;;;;;;;19.50;19.50;;;;;13.20;100.00;99080.91;6283558;20;2837923;-57
2023/06/17 02:12:45;;;;;;;;;21.00;17.00;;;;;13.26;100.00;99099.28;6284627;20;2830576;-58
2023/06/17 02:15:13;;;;;;;;;22.00;22.00;;;;;13.22;100.00;99095.13;6281639;20;2837792;-59
2023/06/17 02:17:42;;;;;;;;;23.00;22.00;;;;;13.13;100.00;99091.31;6282912;20;2826318;-58
2023/06/17 02:20:12;;;;;;;;;27.00;20.00;;;;;13.10;100.00;99093.41;6283745;20;2841942;-59
2023/06/17 02:22:40;;;;;;;;;20.00;17.00;;;;;12.88;100.00;99095.16;6282446;20;2831565;-60
2023/06/17 02:25:09;;;;;;;;;24.00;23.00;;;;;12.71;100.00;99087.56;6280411;20;2835685;-60
2023/06/17 02:27:37;;;;;;;;;23.00;22.00;;;;;12.61;100.00;99086.56;6280628;20;2844073;-60
2023/06/17 02:30:08;;;;;;;;;21.50;21.00;;;;;12.46;100.00;99089.53;6280940;20;2842009;-57
2023/06/17 02:32:36;;;;;;;;;18.50;18.50;;;;;12.78;100.00;99088.78;6283519;20;2835736;-59
2023/06/17 02:35:05;;;;;;;;;22.50;18.00;;;;;12.51;100.00;99092.72;6281504;20;2837904;-59
2023/06/17 02:37:34;;;;;;;;;21.00;20.00;;;;;12.43;100.00;99088.91;6281605;20;2839996;-57
2023/06/17 02:40:07;;;;;;;;;22.00;21.50;;;;;12.80;100.00;99086.84;6281141;20;2835771;-60
2023/06/17 02:42:37;;;;;;;;;24.00;22.00;;;;;12.83;100.00;99091.97;6283000;20;2837832;-60
2023/06/17 02:45:11;;;;;;;;;17.50;17.00;;;;;12.83;100.00;99097.38;6280123;20;2830487;-58
2023/06/17 02:47:40;;;;;;;;;19.00;19.00;;;;;12.83;100.00;99093.81;6279441;20;2496186;-58
2023/06/17 02:50:09;;;;;;;;;22.00;18.50;;;;;12.52;100.00;99099.81;6283273;20;2829847;-59
2023/06/17 02:52:37;;;;;;;;;23.50;19.50;;;;;12.79;100.00;99103.97;6282669;20;2832719;-59
2023/06/17 02:55:06;;;;;;;;;22.50;21.00;;;;;12.65;100.00;99098.84;6279955;20;2844174;-58
2023/06/17 02:57:35;;;;;;;;;16.00;14.00;;;;;12.76;100.00;99100.66;6279716;20;2811798;-59
2023/06/17 03:00:06;;;;;;;;;25.00;21.50;;;;;12.70;100.00;99100.19;6280319;20;2834682;-59
2023/06/17 03:02:34;;;;;;;;;21.00;17.00;;;;;12.88;100.00;99099.69;6282397;20;2837779;-58
2023/06/17 03:05:06;;;;;;;;;26.67;22.67;;;;;13.03;100.00;99101.13;6281698;20;2841917;-59
2023/06/17 03:07:36;;;;;;;;;20.50;18.00;;;;;12.99;100.00;99101.53;6310425;20;2840022;-59
2023/06/17 03:10:05;;;;;;;;;23.00;21.50;;;;;12.90;100.00;99101.28;6281021;20;2841947;-56
2023/06/17 03:12:33;;;;;;;;;22.50;22.50;;;;;12.96;100.00;99103.47;6280554;20;2842992;-58
2023/06/17 03:15:02;;;;;;;;;24.00;20.50;;;;;12.99;100.00;99104.22;6280220;20;2841001;-58
2023/06/17 03:17:31;;;;;;;;;23.00;22.00;;;;;12.96;100.00;99108.88;6281592;20;2836747;-57
2023/06/17 03:19:59;;;;;;;;;18.50;18.50;;;;;13.02;100.00;99106.66;6280505;20;2833647;-59
2023/06/17 03:22:28;;;;;;;;;23.00;22.00;;;;;12.82;100.00;99103.75;6280046;20;2844121;-60
2023/06/17 03:24:56;;;;;;;;;23.00;21.00;;;;;12.74;100.00;99107.06;6313455;20;3583613;-59
2023/06/17 03:27:25;;;;;;;;;23.00;23.00;;;;;12.69;100.00;99109.25;6275420;20;2843058;-59
2023/06/17 03:29:53;;;;;;;;;25.50;24.00;;;;;12.96;100.00;99108.88;6282648;20;2836731;-59
2023/06/17 03:32:21;;;;;;;;;22.50;18.50;;;;;12.85;100.00;99108.00;6280569;20;2839048;-59
2023/06/17 03:34:52;;;;;;;;;29.67;20.33;;;;;12.73;100.00;99101.78;6279859;20;3602717;-59
2023/06/17 03:37:21;;;;;;;;;21.50;21.50;;;;;12.92;100.00;99111.94;6309757;20;2844030;-59
2023/06/17 03:39:49;;;;;;;;;19.50;19.50;;;;;12.83;100.00;99118.91;6280305;20;2825275;-56
2023/06/17 03:42:17;;;;;;;;;23.50;19.50;;;;;12.74;100.00;99114.25;6280879;20;2838964;-57
2023/06/17 03:44:45;;;;;;;;;23.50;20.00;;;;;13.10;100.00;99117.66;6280033;20;2844175;-59
2023/06/17 03:47:14;;;;;;;;;25.00;22.00;;;;;13.25;100.00;99112.88;6279345;20;2848287;-55
2023/06/17 03:49:44;;;;;;;;;22.50;19.00;;;;;13.41;100.00;99112.50;6279970;20;2843995;-58
2023/06/17 03:52:13;;;;;;;;;27.00;25.00;;;;;13.52;100.00;99113.31;6281118;20;2848214;-59
2023/06/17 03:54:41;;;;;;;;;22.00;21.67;;;;;13.63;100.00;99117.81;6314441;20;3583586;-60
2023/06/17 03:57:09;;;;;;;;;19.50;19.50;;;;;13.65;100.00;99121.25;6277340;20;2832587;-58
2023/06/17 03:59:38;;;;;;;;;22.00;20.50;;;;;13.65;100.00;99115.84;6279308;20;2832603;-59
2023/06/17 04:02:06;;;;;;;;;20.50;19.50;;;;;13.62;100.00;99116.13;6279837;20;2833721;-59
2023/06/17 04:04:34;;;;;;;;;21.00;19.00;;;;;13.61;100.00;99122.47;6281177;20;2844434;-57
2023/06/17 04:07:04;;;;;;;;;23.00;22.00;;;;;13.79;100.00;99123.63;6280917;20;2828446;-57
2023/06/17 04:09:33;;;;;;;;;22.33;22.33;;;;;14.20;100.00;99121.13;6277545;20;2849240;-57
2023/06/17 04:12:02;;;;;;;;;22.50;19.50;;;;;14.38;100.00;99124.94;6309131;20;2838864;-58
2023/06/17 04:14:31;;;;;;;;;19.50;19.00;;;;;14.41;100.00;99123.81;6278059;20;2829068;-59
2023/06/17 04:16:59;;;;;;;;;23.50;23.00;;;;;14.15;100.00;99126.91;6281813;20;2835697;-60
2023/06/17 04:19:27;;;;;;;;;30.00;22.67;;;;;14.47;100.00;99134.09;6283576;20;3597177;-60
2023/06/17 04:21:55;;;;;;;;;19.50;19.50;;;;;14.69;100.00;99127.69;6280071;20;2816954;-58
2023/06/17 04:24:24;;;;;;;;;25.00;24.00;;;;;15.31;100.00;99139.34;6276827;20;2843083;-60
2023/06/17 04:26:52;;;;;;;;;22.33;21.67;;;;;15.49;100.00;99148.50;6282661;20;3584770;-60
2023/06/17 04:29:21;;;;;;;;;25.33;25.33;;;;;15.10;100.00;99134.00;6272875;20;3600194;-60
2023/06/17 04:31:50;;;;;;;;;28.33;23.67;;;;;14.99;100.00;99134.13;6307145;20;3597250;-60
2023/06/17 04:34:21;;;;;;;;;29.00;26.00;;;;;15.07;100.00;99142.41;6278670;20;3597318;-60
2023/06/17 04:36:56;;;;;;;;;28.33;25.67;;;;;15.11;100.00;99142.00;6310944;20;3578383;-60
2023/06/17 04:39:28;;;;;;;;;24.33;24.33;;;;;15.23;100.00;99142.72;6283807;20;3582745;-59
2023/06/17 04:41:56;;;;;;;;;24.00;24.00;;;;;15.20;100.00;99143.00;6289506;20;3585702;-59
2023/06/17 04:44:24;;;;;;;;;23.00;23.00;;;;;15.46;100.00;99143.38;6282754;20;2833646;-59
2023/06/17 04:46:53;;;;;;;;;24.67;22.67;;;;;15.94;100.00;99136.34;6286276;20;3570241;-59
2023/06/17 04:49:22;;;;;;;;;22.50;22.00;;;;;16.08;100.00;99148.59;6282947;20;2830462;-60
2023/06/17 04:51:52;;;;;;;;;26.67;23.33;;;;;15.96;100.00;99146.03;6284992;20;3572109;-60
2023/06/17 04:54:20;;;;;;;;;29.00;24.00;;;;;16.23;100.00;99141.75;6320125;20;3584806;-60
2023/06/17 04:56:51;;;;;;;;;22.00;21.00;;;;;16.06;100.00;99142.44;6282841;20;2836895;-60
2023/06/17 04:59:20;;;;;;;;;24.33;23.00;;;;;16.11;100.00;99148.28;6287953;20;3587106;-59
2023/06/17 05:01:49;;;;;;;;;29.00;22.67;;;;;16.13;100.00;99151.72;6279880;20;3599253;-59
2023/06/17 05:04:17;;;;;;;;;25.50;23.00;;;;;16.24;100.00;99149.75;6315914;20;2837770;-60
2023/06/17 05:06:45;;;;;;;;;23.67;23.33;;;;;16.51;100.00;99144.53;6285475;20;3582538;-60
2023/06/17 05:09:14;;;;;;;;;26.00;23.67;;;;;16.73;100.00;99149.63;6282475;20;3587777;-60
2023/06/17 05:11:43;;;;;;;;;28.00;25.00;;;;;16.47;100.00;99149.41;6285608;20;2832539;-58
2023/06/17 05:14:11;;;;;;;;;24.33;22.67;;;;;16.42;100.00;99157.97;6316698;20;3580490;-59
2023/06/17 05:16:40;;;;;;;;;28.00;25.00;;;;;16.57;100.00;99157.53;6283995;20;3589837;-59
2023/06/17 05:19:08;;;;;;;;;26.33;24.00;;;;;16.87;100.00;99157.31;6315778;20;3584875;-59
2023/06/17 05:21:37;;;;;;;;;24.00;18.00;;;;;17.33;98.34;99163.72;6287381;20;3581569;-59
2023/06/17 05:24:05;;;;;;;;;24.67;24.00;;;;;17.46;96.43;99162.50;6287657;20;3576302;-59
2023/06/17 05:26:33;;;;;;;;;24.00;22.50;;;;;17.81;94.89;99169.03;6282091;20;2835729;-54
2023/06/17 05:29:02;;;;;;;;;17.50;17.50;;;;;17.73;95.33;99170.63;6281884;20;2833614;-56
2023/06/17 05:31:31;;;;;;;;;23.33;21.33;;;;;17.96;94.06;99164.78;6286447;20;2842974;-58
2023/06/17 05:33:59;;;;;;;;;21.33;20.00;;;;;18.33;92.26;99170.06;6320148;20;3575832;-61
2023/06/17 05:36:27;;;;;;;;;22.67;21.00;;;;;18.16;90.85;99166.31;6286604;20;3578410;-56
2023/06/17 05:38:55;;;;;;;;;22.00;19.00;;;;;18.37;89.51;99166.00;6280367;20;2713823;-58
2023/06/17 05:41:23;;;;;;;;;22.00;18.67;;;;;18.60;87.17;99179.09;6317920;20;3572136;-57
2023/06/17 05:43:52;;;;;;;;;20.33;18.00;;;;;18.40;87.01;99165.72;6286543;20;3573170;-58
2023/06/17 05:46:20;;;;;;;;;20.00;19.33;;;;;18.65;85.98;99177.59;6283882;20;3565910;-58
2023/06/17 05:48:48;;;;;;;;;22.00;21.00;;;;;18.53;85.08;99172.59;6282529;20;3577480;-58
2023/06/17 05:51:17;;;;;;;;;23.00;21.33;;;;;18.82;85.20;99172.31;6281288;20;3573291;-59
2023/06/17 05:53:45;;;;;;;;;19.67;19.67;;;;;18.57;85.98;99174.84;6285232;20;3581506;-59
2023/06/17 05:56:14;;;;;;;;;22.00;20.67;;;;;18.91;85.42;99176.81;6282038;20;2844090;-59
2023/06/17 05:58:43;;;;;;;;;21.00;21.00;;;;;18.82;85.02;99178.59;6319893;20;3587748;-57
2023/06/17 06:01:11;;;;;;;;;23.33;21.67;;;;;18.94;85.24;99181.06;6287812;20;3580704;-58
2023/06/17 06:03:39;;;;;;;;;25.33;24.00;;;;;19.19;83.02;99191.06;6285808;20;3594063;-59
2023/06/17 06:06:08;;;;;;;;;25.33;22.67;;;;;19.89;80.61;99188.16;6285127;20;3584708;-59
2023/06/17 06:08:36;;;;;;;;;21.00;20.67;;;;;19.84;80.03;99190.53;6287117;20;3565910;-55
2023/06/17 06:11:04;;;;;;;;;21.00;20.00;;;;;20.12;79.91;99187.53;6284471;20;3573182;-58
2023/06/17 06:13:32;;;;;;;;;21.67;18.67;;;;;20.25;78.19;99190.63;6285189;20;3585827;-58
2023/06/17 06:16:01;;;;;;;;;22.00;21.00;;;;;20.44;77.24;99186.69;6281225;20;3558635;-56
2023/06/17 06:18:29;;;;;;;;;23.67;21.67;;;;;20.66;77.46;99196.09;6285721;20;3578367;-59
2023/06/17 06:20:57;;;;;;;;;23.00;20.00;;;;;20.74;75.58;99196.09;6283808;20;3575425;-59
2023/06/17 06:23:25;;;;;;;;;21.00;20.33;;;;;;;;6282161;20;3569092;-58
2023/06/17 06:25:54;;;;;;;;;21.00;19.67;;;;;21.21;74.67;99198.06;6281020;20;3566009;-59
2023/06/17 06:28:22;;;;;;;;;22.00;21.67;;;;;20.96;75.18;99188.22;6285001;20;3576370;-59
2023/06/17 06:30:51;;;;;;;;;20.67;20.67;;;;;20.81;76.72;99193.53;6282979;20;2846259;-59
2023/06/17 06:33:19;;;;;;;;;24.00;20.67;;;;;21.31;73.86;99191.56;6317893;20;3577476;-59
2023/06/17 06:35:47;;;;;;;;;13.67;12.00;;;;;21.60;73.93;99191.81;6285214;20;2791948;-59
2023/06/17 06:38:15;;;;;;;;;23.00;22.00;;;;;21.42;74.55;99188.47;6315377;20;3580453;-59
2023/06/17 06:40:43;;;;;;;;;19.00;18.00;;;;;22.04;73.06;99202.19;6286071;20;3574302;-59
2023/06/17 06:43:12;;;;;;;;;21.33;21.33;;;;;22.40;71.76;99196.13;6286989;20;3581545;-59
2023/06/17 06:45:40;;;;;;;;;22.33;21.00;;;;;22.49;72.36;99192.31;6285143;20;3583586;-60
2023/06/17 06:48:08;;;;;;;;;23.00;19.67;;;;;23.26;68.43;99202.22;6285938;20;3569273;-59
2023/06/17 06:50:36;;;;;;;;;26.67;24.00;;;;;22.76;69.68;99201.81;6282823;20;3602352;-59
2023/06/17 06:53:05;;;;;;;;;20.00;19.00;;;;;22.87;68.25;99203.25;6282490;20;2832677;-59
2023/06/17 06:55:34;;;;;;;;;21.67;20.00;;;;;22.55;69.32;99199.78;6281066;20;3581501;-58
2023/06/17 06:58:03;;;;;;;;;24.33;21.33;;;;;22.76;67.50;99206.44;6313077;20;3583643;-60
2023/06/17 07:00:31;;;;;;;;;21.00;20.67;;;;;23.13;66.73;99219.31;6317406;20;3583646;-59
2023/06/17 07:02:59;;;;;;;;;24.00;22.67;;;;;23.51;66.43;99210.16;6285087;20;3595070;-59
2023/06/17 07:05:28;;;;;;;;;19.00;19.00;;;;;24.15;63.23;99213.13;6281947;20;3573249;-59
2023/06/17 07:07:56;;;;;;;;;20.00;19.00;;;;;23.36;62.89;99202.78;6285914;20;3581942;-59
2023/06/17 07:10:25;;;;;;;;;24.67;21.67;;;;;23.08;64.46;99199.00;6285421;20;3589881;-58
2023/06/17 07:12:53;;;;;;;;;22.67;22.00;;;;;23.73;62.93;99209.22;6285460;20;3579414;-58
2023/06/17 07:15:21;;;;;;;;;21.67;17.67;;;;;23.25;63.35;99214.22;6284715;20;3573201;-59
2023/06/17 07:17:49;;;;;;;;;20.67;18.33;;;;;23.70;63.56;99215.06;6281014;20;3571647;-59
2023/06/17 07:20:18;;;;;;;;;18.67;18.67;;;;;24.13;63.08;99208.88;6275586;20;3563912;-59
2023/06/17 07:22:46;;;;;;;;;20.00;19.33;;;;;24.28;62.47;99210.53;6279919;20;3605515;-59
2023/06/17 07:25:15;;;;;;;;;22.67;22.67;;;;;23.60;63.67;99212.59;6282263;20;3584712;-59
2023/06/17 07:27:43;;;;;;;;;20.67;19.00;;;;;22.99;64.98;99211.94;6283625;20;3566932;-58
2023/06/17 07:30:12;;;;;;;;;26.67;21.00;;;;;22.99;65.95;99207.28;6284726;20;3584731;-59
2023/06/17 07:32:40;;;;;;;;;25.00;22.33;;;;;22.86;65.30;99212.53;6286758;20;3587841;-59
2023/06/17 07:35:08;;;;;;;;;24.00;23.00;;;;;22.85;65.22;99210.81;6281996;20;3594021;-59
2023/06/17 07:37:36;;;;;;;;;21.67;20.33;;;;;22.83;66.22;99221.13;6278345;20;3583659;-59
2023/06/17 07:40:06;;;;;;;;;24.00;22.33;;;;;22.62;65.68;99212.72;6283643;20;3595056;-58
2023/06/17 07:42:35;;;;;;;;;23.00;23.00;;;;;22.79;65.56;99217.88;6281662;20;3596331;-59
2023/06/17 07:45:06;;;;;;;;;21.33;19.00;;;;;22.93;66.43;99216.22;6275770;20;3565914;-59
2023/06/17 07:47:35;;;;;;;;;21.50;21.50;;;;;22.30;66.91;99212.81;6273837;20;2845135;-59
2023/06/17 07:50:05;;;;;;;;;21.00;19.00;;;;;22.90;66.03;99216.56;6273499;20;3561924;-56
2023/06/17 07:52:35;;;;;;;;;21.67;20.67;;;;;22.73;65.29;99212.31;6281934;20;3587778;-59
2023/06/17 07:55:04;;;;;;;;;20.67;20.67;;;;;22.89;65.26;99212.16;6278742;20;3578398;-56
2023/06/17 07:57:36;;;;;;;;;15.67;15.67;;;;;22.81;65.30;99208.66;6276462;20;2830488;-58
2023/06/17 08:00:12;;;;;;;;;20.67;18.00;;;;;22.72;65.52;99206.00;6310789;20;3567024;-59
2023/06/17 08:02:42;;;;;;;;;19.67;19.67;;;;;22.88;64.25;99207.72;6280702;20;3564906;-59
2023/06/17 08:05:10;;;;;;;;;22.67;20.00;;;;;23.66;62.91;99211.00;6283789;20;3579466;-59
2023/06/17 08:07:38;;;;;;;;;17.33;16.67;;;;;23.39;61.80;99218.84;6283014;20;3567052;-59
2023/06/17 08:10:07;;;;;;;;;22.33;22.33;;;;;22.96;63.49;99212.25;6281423;20;3574406;-59
2023/06/17 08:12:37;;;;;;;;;24.50;23.00;;;;;22.67;64.87;99218.50;6283197;20;3462765;-59
2023/06/17 08:15:06;;;;;;;;;25.00;25.00;;;;;22.81;64.96;99219.59;6317229;20;3598222;-59
2023/06/17 08:17:35;;;;;;;;;22.67;21.33;;;;;23.14;62.95;99220.16;6287960;20;3573269;-59
2023/06/17 08:20:04;;;;;;;;;20.67;19.67;;;;;23.38;63.15;99214.44;6289267;20;3570073;-59
2023/06/17 08:22:32;;;;;;;;;22.67;22.00;;;;;23.11;63.03;99215.03;6285417;20;3589969;-59
2023/06/17 08:25:01;;;;;;;;;18.00;18.00;;;;;23.15;65.00;99227.34;6280677;20;3568003;-60
2023/06/17 08:27:29;;;;;;;;;21.33;21.33;;;;;23.07;64.43;99222.78;6285453;20;3581558;-60
2023/06/17 08:29:59;;;;;;;;;20.33;19.33;;;;;23.70;61.60;99228.78;6288473;20;3558617;-60
2023/06/17 08:32:28;;;;;;;;;20.67;20.67;;;;;23.33;61.08;99225.09;6288874;20;3587750;-60
2023/06/17 08:34:56;;;;;;;;;20.00;20.00;;;;;23.37;61.68;99223.66;6285780;20;3573179;-59
2023/06/17 08:37:24;;;;;;;;;20.50;18.00;;;;;23.90;61.74;99225.47;6283556;20;2828403;-60
2023/06/17 08:39:52;;;;;;;;;19.33;19.33;;;;;23.71;61.95;99222.25;6286044;20;3561822;-59
2023/06/17 08:42:21;;;;;;;;;20.33;19.00;;;;;23.41;60.01;99225.00;6287232;20;3569109;-59
2023/06/17 08:44:51;;;;;;;;;20.00;20.00;;;;;23.63;60.40;99227.81;6287546;20;3577866;-59
2023/06/17 08:47:20;;;;;;;;;24.67;20.33;;;;;23.50;61.54;99224.91;6282979;20;3577327;-60
2023/06/17 08:49:49;;;;;;;;;19.67;18.33;;;;;23.31;61.32;99220.84;6283728;20;3573673;-59
2023/06/17 08:52:18;;;;;;;;;22.00;17.33;;;;;23.45;59.19;99228.19;6282626;20;2829442;-60
2023/06/17 08:54:48;;;;;;;;;20.00;16.67;;;;;23.50;58.19;99224.91;6317906;20;3563817;-59
2023/06/17 08:57:17;;;;;;;;;22.67;21.00;;;;;23.11;58.26;99226.00;6287502;20;3583613;-58
2023/06/17 08:59:46;;;;;;;;;20.00;20.00;;;;;23.32;58.51;99228.84;6287155;20;3577334;-60
2023/06/17 09:02:15;;;;;;;;;21.00;19.00;;;;;23.05;57.91;99224.03;6286544;20;3576333;-60
2023/06/17 09:04:43;;;;;;;;;18.00;17.00;;;;;23.54;58.09;99220.72;6282010;20;2820125;-60
2023/06/17 09:07:12;;;;;;;;;17.67;17.00;;;;;24.00;55.93;99226.00;6286889;20;3571220;-59
2023/06/17 09:09:48;;;;;;;;;19.67;17.33;;;;;24.27;56.31;99233.50;6281218;20;3556732;-59
2023/06/17 09:12:16;;;;;;;;;20.33;18.00;;;;;24.19;55.47;99230.03;6284651;20;3570157;-59
2023/06/17 09:14:44;;;;;;;;;21.00;20.00;;;;;24.34;55.95;99233.56;6287820;20;3585673;-59
2023/06/17 09:17:37;;;;;;;;;20.67;20.67;;;;;24.29;56.57;99228.66;6285039;20;2831658;-59
2023/06/17 09:20:12;;;;;;;;;23.00;20.00;;;;;24.36;55.75;99230.66;6317871;20;3587757;-58
2023/06/17 09:22:49;;;;;;;;;19.67;19.67;;;;;24.22;55.98;99226.88;6286888;20;3576298;-55
2023/06/17 09:25:20;;;;;;;;;22.00;21.00;;;;;24.73;55.31;99216.69;6282082;20;3571093;-58
2023/06/17 09:27:53;;;;;;;;;16.50;16.50;;;;;24.82;55.29;99224.78;6282978;20;2824264;-59
2023/06/17 09:30:45;;;;;;;;;20.33;17.67;;;;;24.69;54.14;99220.84;6285069;20;3567123;-60
2023/06/17 09:33:18;;;;;;;;;19.00;19.00;;;;;24.98;53.17;99214.34;6279656;20;3570207;-61
2023/06/17 09:35:47;;;;;;;;;18.00;18.00;;;;;24.96;53.96;99215.59;6280517;20;3570103;-60
2023/06/17 09:38:20;;;;;;;;;19.00;17.33;;;;;24.69;53.61;99218.13;6282423;20;3553558;-60
2023/06/17 09:40:49;;;;;;;;;16.50;16.50;;;;;25.06;52.62;99218.00;6280249;20;2830617;-60
2023/06/17 09:43:18;;;;;;;;;17.33;17.33;;;;;25.12;52.89;99215.31;6283814;20;3562854;-60
2023/06/17 09:46:04;;;;;;;;;18.00;18.00;;;;;25.41;51.93;99224.44;6277798;20;3570036;-61
2023/06/17 09:48:37;;;;;;;;;18.33;17.00;;;;;25.12;52.46;99226.31;6283649;20;3549451;-61
2023/06/17 09:51:09;;;;;;;;;13.67;13.00;;;;;26.00;50.70;99223.91;6313099;20;3535776;-61
2023/06/17 09:53:41;;;;;;;;;15.00;14.50;;;;;25.90;49.15;99222.59;6309138;20;2813790;-59
2023/06/17 09:56:10;;;;;;;;;19.33;16.33;;;;;25.38;50.92;99219.31;6282658;20;3562770;-61
2023/06/17 09:58:42;;;;;;;;;17.33;17.33;;;;;25.06;50.26;99224.34;6282499;20;3546101;-61
2023/06/17 10:01:13;;;;;;;;;16.00;16.00;;;;;25.55;51.58;99226.19;6280926;20;2833656;-61
2023/06/17 10:03:41;;;;;;;;;19.67;16.33;;;;;25.53;47.85;99217.28;6286087;20;3559784;-60
2023/06/17 10:06:13;;;;;;;;;14.00;14.00;;;;;25.28;47.87;99224.34;6282968;20;2810703;-61
2023/06/17 10:08:43;;;;;;;;;14.00;14.00;;;;;25.31;48.10;99226.69;6279363;20;2808713;-61
2023/06/17 10:11:15;;;;;;;;;13.67;13.67;;;;;25.52;47.48;99221.09;6284589;20;3538826;-59
2023/06/17 10:13:53;;;;;;;;;16.33;16.00;;;;;25.86;47.88;99222.16;6312038;20;3553524;-61
2023/06/17 10:16:23;;;;;;;;;16.00;16.00;;;;;25.70;48.29;99222.44;6281848;20;2825333;-62
2023/06/17 10:18:55;;;;;;;;;16.33;15.33;;;;;25.75;48.66;99219.94;6284411;20;3554467;-61
2023/06/17 10:21:27;;;;;;;;;16.33;14.33;;;;;26.25;47.81;99217.84;6278431;20;3554503;-61
2023/06/17 10:23:58;;;;;;;;;16.00;16.00;;;;;25.86;48.47;99222.16;6280526;20;3568019;-62
2023/06/17 10:26:29;;;;;;;;;16.50;15.00;;;;;26.03;47.56;99223.47;6276192;20;2820078;-61
2023/06/17 10:28:56;;;;;;;;;15.00;14.00;;;;;26.12;48.21;99226.03;6281781;20;2483725;-62
2023/06/17 10:31:42;;;;;;;;;18.50;17.00;;;;;26.09;47.81;99216.31;6313362;20;2837783;-61
2023/06/17 10:34:16;;;;;;;;;19.00;15.00;;;;;25.59;47.47;99218.38;6283424;20;3552798;-59
2023/06/17 10:36:58;;;;;;;;;14.33;14.33;;;;;25.96;47.61;99219.88;6283031;20;3544151;-61
2023/06/17 10:39:26;;;;;;;;;19.00;17.33;;;;;26.26;47.18;99227.81;6317490;20;3558692;-61
2023/06/17 10:41:59;;;;;;;;;18.33;16.67;;;;;25.75;49.27;99223.56;6318292;20;3556531;-61
2023/06/17 10:44:33;;;;;;;;;15.00;15.00;;;;;25.86;51.25;99221.28;6278528;20;2491896;-62
2023/06/17 10:47:23;;;;;;;;;15.67;14.67;;;;;25.73;48.84;99219.31;6314083;20;3550324;-61
2023/06/17 10:49:53;;;;;;;;;15.67;14.33;;;;;25.84;50.21;99221.50;6309799;20;3547166;-62
2023/06/17 10:52:21;;;;;;;;;13.00;13.00;;;;;25.61;49.08;99230.88;6279262;20;2810864;-60
2023/06/17 10:54:53;;;;;;;;;13.67;13.67;;;;;25.80;48.73;99225.69;6283783;20;2487882;-62
2023/06/17 10:57:33;;;;;;;;;17.00;16.00;;;;;26.05;49.42;99215.88;6314973;20;3553442;-61
2023/06/17 11:00:08;;;;;;;;;18.00;16.00;;;;;26.00;48.50;99226.66;6280779;20;2820148;-62
2023/06/17 11:02:44;;;;;;;;;20.50;17.50;;;;;25.73;49.87;99224.81;6283032;20;2841967;-61
2023/06/17 11:05:16;;;;;;;;;17.50;17.50;;;;;25.80;49.16;99220.19;6279843;20;2837861;-60
2023/06/17 11:07:44;;;;;;;;;13.00;13.00;;;;;25.63;49.45;99222.44;6283759;20;2483745;-61
2023/06/17 11:10:12;;;;;;;;;14.50;12.50;;;;;25.98;49.18;99220.50;6307993;20;2810872;-62
2023/06/17 11:12:46;;;;;;;;;16.67;16.67;;;;;25.95;48.21;99229.16;6281351;20;2487879;-60